Richmond International Airport
KRIC : rendu visible

Aérodrome :











RETROUVEZ-NOUS SUR...

 
LOGIN :

S'inscrire | Disclaimer

   EN    FR    IT 

 









Légende :    VFR   VFR Marginal   IFR   IFR Intensif   IFR Très Intensif
Visi : 
Plafond : 
>= 8 km
>= 3000ft
5 à 8 km
1000 à 3000 ft
1500m à 5 km
500 à 1000 ft
800 à 1500m
200 à 500 ft
< 800m
< 200 ft
Symboles :   Orages  Brouillard  Fortes neiges  Fortes précipitations  Vent > 20 kt






- Altitude de l'aérodrome : 167 ft
- Code IATA : RIC


KRIC - Richmond International

DERNIER METAR :
  • 201654Z 35012G21KT 10SM SCT055 12/01 A3007 RMK AO2 SLP187 T01220006

METARs EXPIRÉS :
  • 201554Z 33015G23KT 10SM FEW055 12/02 A3008 RMK AO2 SLP190 T01170017
  • 201454Z 33013KT 10SM FEW055 09/02 A3008 RMK AO2 SLP190 T00940017 51028

TAF KRIC
Valide du 20 à 18h jusqu'au 21 à 18h UTC


201720Z 2018/2118 33011G18KT P6SM SCT050
FM202300 33006KT P6SM SKC
FM210800 VRB03KT P6SM SKC
FM211500 29006KT P6SM SCT200



MET'MAP, la Météo Aéronautique d'un coup d'oeil ! - Copyright ORBIFLY Décembre 2007 - Disclaimer

ORBIFLY MET'MAP TEAM :

Programmation & Développement : Alexandra Zaïnal
Conception & Développement : Baudouin d'Aumeries
Co-Programmation & Développement : Marc-Olivier Méhu
Soutien technique & logistique : Manuel Goepfert

Contact : metmap@orbifly.com




SOURCES & CREDITS :

   NOAA       Earth
Advisory